createdAt,value
2022-10-25T00:00:28.986Z,97924.91
2022-10-25T00:03:37.765Z,97928.41
2022-10-25T00:06:43.771Z,97925.13
2022-10-25T00:09:52.297Z,97935.19
2022-10-25T00:12:58.611Z,97939.34
2022-10-25T00:16:04.534Z,97941.38
2022-10-25T00:19:12.011Z,97944.25
2022-10-25T00:22:21.057Z,97945.69
2022-10-25T00:25:29.377Z,97949.81
2022-10-25T00:28:35.533Z,97950.66
2022-10-25T00:31:42.423Z,97953.47
2022-10-25T00:34:48.124Z,97960.50
2022-10-25T00:37:54.556Z,97954.91
2022-10-25T00:41:04.315Z,97946.03
2022-10-25T00:44:53.559Z,97947.06
2022-10-25T00:48:07.075Z,97947.06
2022-10-25T00:51:13.376Z,97953.44
2022-10-25T00:54:28.873Z,97947.03
2022-10-25T00:57:46.152Z,97947.00
2022-10-25T01:00:52.718Z,97951.34
2022-10-25T01:04:06.081Z,97944.94
2022-10-25T01:07:11.680Z,97933.00
2022-10-25T01:10:17.437Z,97929.06
2022-10-25T01:13:26.093Z,97931.75
2022-10-25T01:16:48.774Z,97935.22
2022-10-25T01:20:59.967Z,97937.50
2022-10-25T01:24:52.410Z,97934.41
2022-10-25T01:28:18.649Z,97941.56
2022-10-25T01:31:43.852Z,97930.69
2022-10-25T01:35:01.347Z,97937.22
2022-10-25T01:38:45.004Z,97937.91
2022-10-25T01:42:18.858Z,97947.13
2022-10-25T01:45:37.208Z,97942.97
2022-10-25T01:48:53.884Z,97937.84
2022-10-25T01:51:59.543Z,97931.28
2022-10-25T01:55:11.165Z,97936.22
2022-10-25T01:58:41.544Z,97928.25
2022-10-25T02:02:09.527Z,97931.75
2022-10-25T02:05:30.670Z,97936.22
2022-10-25T02:08:46.908Z,97946.50
2022-10-25T02:11:56.471Z,97930.47
2022-10-25T02:15:18.829Z,97939.94
2022-10-25T02:18:33.772Z,97938.28
2022-10-25T02:21:47.005Z,97930.84
2022-10-25T02:24:58.240Z,97930.03
2022-10-25T02:28:10.101Z,97935.00
2022-10-25T02:31:22.823Z,97926.34
2022-10-25T02:34:28.864Z,97931.06
2022-10-25T02:37:37.100Z,97933.81
2022-10-25T02:40:46.423Z,97932.97
2022-10-25T02:43:52.566Z,97931.69
2022-10-25T02:47:04.837Z,97943.75
2022-10-25T02:50:11.567Z,97945.03
2022-10-25T02:53:25.312Z,97939.00
2022-10-25T02:56:31.455Z,97945.94
2022-10-25T02:59:37.026Z,97951.22
2022-10-25T03:02:42.599Z,97944.09
2022-10-25T03:05:48.212Z,97950.72
2022-10-25T03:08:56.424Z,97946.25
2022-10-25T03:12:02.063Z,97947.25
2022-10-25T03:15:09.745Z,97944.97
2022-10-25T03:18:16.581Z,97951.22
2022-10-25T03:21:22.082Z,97957.81
2022-10-25T03:24:30.322Z,97950.97
2022-10-25T03:27:35.886Z,97958.53
2022-10-25T03:30:41.655Z,97959.41
2022-10-25T03:33:48.059Z,97963.97
2022-10-25T03:36:55.191Z,97976.00
2022-10-25T03:40:03.561Z,97972.75
2022-10-25T03:43:09.161Z,97964.88
2022-10-25T03:46:16.292Z,97967.13
2022-10-25T03:49:22.089Z,97965.38
2022-10-25T03:52:28.214Z,97969.22
2022-10-25T03:55:37.802Z,97973.94
2022-10-25T03:58:43.464Z,97963.97
2022-10-25T04:01:49.259Z,97961.72
2022-10-25T04:04:55.278Z,97961.94
2022-10-25T04:08:01.384Z,97958.63
2022-10-25T04:11:09.763Z,97965.00
2022-10-25T04:14:15.468Z,97963.81
2022-10-25T04:17:21.255Z,97970.03
2022-10-25T04:20:27.130Z,97980.22
2022-10-25T04:23:32.978Z,97972.03
2022-10-25T04:26:41.274Z,97975.41
2022-10-25T04:29:46.852Z,97969.88
2022-10-25T04:32:52.671Z,97965.56
2022-10-25T04:35:59.459Z,97966.16
2022-10-25T04:39:05.023Z,97960.38
2022-10-25T04:42:13.330Z,97969.22
2022-10-25T04:45:19.115Z,97966.38
2022-10-25T04:48:25.583Z,97960.72
2022-10-25T04:51:31.292Z,97954.34
2022-10-25T04:54:36.854Z,97950.94
2022-10-25T04:57:45.096Z,97954.34
2022-10-25T05:00:50.860Z,97960.16
2022-10-25T05:03:56.440Z,97963.66
2022-10-25T05:07:02.255Z,97958.41
2022-10-25T05:10:21.128Z,97957.78
2022-10-25T05:13:29.256Z,97955.34
2022-10-25T05:16:35.526Z,97961.50
2022-10-25T05:19:41.141Z,97966.22
2022-10-25T05:22:46.972Z,97964.19
2022-10-25T05:26:03.391Z,97968.00
2022-10-25T05:29:15.799Z,97971.75
2022-10-25T05:32:21.419Z,97974.41
2022-10-25T05:35:27.061Z,97972.13
2022-10-25T05:38:36.948Z,97969.44
2022-10-25T05:41:43.525Z,97979.28
2022-10-25T05:44:51.803Z,97987.16
2022-10-25T05:47:57.403Z,97996.63
2022-10-25T05:54:42.644Z,98006.88
2022-10-25T05:57:55.962Z,98002.41
2022-10-25T06:01:05.500Z,97998.97
2022-10-25T06:04:12.685Z,97995.25
2022-10-25T06:07:18.420Z,98005.78
2022-10-25T06:10:24.159Z,98009.03
2022-10-25T06:13:29.746Z,98008.28
2022-10-25T06:16:41.174Z,98011.22
2022-10-25T06:19:46.859Z,98021.75
2022-10-25T06:22:52.552Z,98028.53
2022-10-25T06:26:04.081Z,98024.94
2022-10-25T06:29:10.012Z,98030.72
2022-10-25T06:32:18.348Z,98036.22
2022-10-25T06:35:24.190Z,98046.16
2022-10-25T06:38:29.936Z,98045.75
2022-10-25T06:41:37.452Z,98067.22
2022-10-25T06:44:43.462Z,98069.28
2022-10-25T06:47:51.808Z,98068.44
2022-10-25T06:51:05.717Z,98070.09
2022-10-25T06:54:12.300Z,98075.19
2022-10-25T06:57:18.080Z,98071.88
2022-10-25T07:00:24.146Z,98078.44
2022-10-25T07:03:35.366Z,98065.88
2022-10-25T07:06:41.046Z,98065.53
2022-10-25T07:09:47.303Z,98073.41
2022-10-25T07:12:53.025Z,98071.69
2022-10-25T07:16:06.144Z,98082.91
2022-10-25T07:19:14.560Z,98081.09
2022-10-25T07:22:20.070Z,98081.44
2022-10-25T07:25:25.585Z,98082.31
2022-10-25T07:28:31.280Z,98066.75
2022-10-25T07:31:41.052Z,98079.94
2022-10-25T07:39:26.120Z,98071.41
2022-10-25T07:42:31.817Z,98068.13
2022-10-25T07:45:37.612Z,98068.91
2022-10-25T07:48:43.590Z,98069.88
2022-10-25T07:51:49.114Z,98082.34
2022-10-25T07:54:57.402Z,98100.28
2022-10-25T07:58:04.626Z,98109.03
2022-10-25T08:01:13.342Z,98121.00
2022-10-25T08:04:19.634Z,98116.53
2022-10-25T08:07:25.334Z,98119.38
2022-10-25T08:10:33.997Z,98126.03
2022-10-25T08:13:41.030Z,98122.84
2022-10-25T08:16:46.814Z,98128.50
2022-10-25T08:19:52.404Z,98120.81
2022-10-25T08:23:01.120Z,98118.25
2022-10-25T08:26:10.005Z,98117.81
2022-10-25T08:29:15.640Z,98113.31
2022-10-25T08:32:21.281Z,98113.69
2022-10-25T08:35:26.912Z,98115.31
2022-10-25T08:38:33.014Z,98112.97
2022-10-25T08:41:54.173Z,98107.06
2022-10-25T08:45:16.753Z,98110.91
2022-10-25T08:48:31.142Z,98109.72
2022-10-25T08:51:44.849Z,98112.13
2022-10-25T08:54:53.030Z,98110.00
2022-10-25T08:58:03.580Z,98110.63
2022-10-25T09:01:30.172Z,98111.75
2022-10-25T09:04:39.678Z,98107.44
2022-10-25T09:08:28.916Z,98102.00
2022-10-25T09:11:58.142Z,98104.56
2022-10-25T09:15:21.614Z,98092.69
2022-10-25T09:18:44.556Z,98084.94
2022-10-25T09:22:00.260Z,98091.06
2022-10-25T09:25:23.168Z,98092.97
2022-10-25T09:28:52.391Z,98092.38
2022-10-25T09:32:03.656Z,98091.13
2022-10-25T09:35:19.592Z,98084.28
2022-10-25T09:38:32.581Z,98098.69
2022-10-25T09:41:46.322Z,98103.44
2022-10-25T09:45:00.213Z,98104.94
2022-10-25T09:48:25.788Z,98102.22
2022-10-25T09:51:46.780Z,98106.88
2022-10-25T09:54:57.890Z,98109.06
2022-10-25T09:58:05.293Z,98114.69
2022-10-25T10:01:20.140Z,98130.50
2022-10-25T10:04:39.655Z,98120.63
2022-10-25T10:07:48.018Z,98122.94
2022-10-25T10:10:57.330Z,98127.75
2022-10-25T10:14:13.691Z,98124.88
2022-10-25T10:17:26.027Z,98124.31
2022-10-25T10:20:35.106Z,98116.09
2022-10-25T10:23:54.628Z,98122.22
2022-10-25T10:27:04.809Z,98121.34
2022-10-25T10:30:24.936Z,98120.59
2022-10-25T10:33:36.160Z,98118.78
2022-10-25T10:36:47.671Z,98120.56
2022-10-25T10:39:56.716Z,98104.66
2022-10-25T10:43:04.900Z,98108.84
2022-10-25T10:46:20.105Z,98107.22
2022-10-25T10:49:40.397Z,98116.69
2022-10-25T10:52:54.021Z,98117.00
2022-10-25T10:56:17.354Z,98117.09
2022-10-25T10:59:47.648Z,98108.78
2022-10-25T11:02:54.362Z,98105.75
2022-10-25T11:06:07.764Z,98108.06
2022-10-25T11:09:27.785Z,98107.19
2022-10-25T11:12:36.529Z,98109.16
2022-10-25T11:16:24.426Z,98105.91
2022-10-25T11:20:21.585Z,98098.63
2022-10-25T11:23:46.504Z,98100.53
2022-10-25T11:27:13.917Z,98098.00
2022-10-25T11:30:24.126Z,98092.41
2022-10-25T11:33:55.941Z,98093.00
2022-10-25T11:37:22.977Z,98107.53
2022-10-25T11:40:35.711Z,98096.94
2022-10-25T11:44:21.269Z,98102.44
2022-10-25T11:47:46.176Z,98099.31
2022-10-25T11:51:05.762Z,98095.84
2022-10-25T11:54:32.973Z,98095.56
2022-10-25T11:57:58.607Z,98098.88
2022-10-25T12:01:28.622Z,98104.00
2022-10-25T12:04:59.955Z,98094.88
2022-10-25T12:08:29.297Z,98094.06
2022-10-25T12:11:45.088Z,98095.69
2022-10-25T12:14:59.715Z,98103.50
2022-10-25T12:18:27.944Z,98103.53
2022-10-25T12:21:49.378Z,98089.97
2022-10-25T12:25:08.031Z,98101.56
2022-10-25T12:28:28.088Z,98105.16
2022-10-25T12:31:43.654Z,98104.84
2022-10-25T12:34:57.200Z,98097.50
2022-10-25T12:38:14.563Z,98084.88
2022-10-25T12:41:30.391Z,98097.69
2022-10-25T12:45:17.132Z,98092.84
2022-10-25T12:49:03.667Z,98097.41
2022-10-25T12:52:34.967Z,98095.41
2022-10-25T12:56:04.554Z,98101.28
2022-10-25T12:59:32.948Z,98100.50
2022-10-25T13:03:31.547Z,98101.16
2022-10-25T13:06:41.737Z,98097.56
2022-10-25T13:09:51.411Z,98095.69
2022-10-25T13:13:05.386Z,98090.94
2022-10-25T13:16:14.117Z,98095.66
2022-10-25T13:20:00.937Z,98103.19
2022-10-25T13:22:56.769Z,98104.84
2022-10-25T13:26:12.472Z,98102.16
2022-10-25T13:29:51.376Z,98113.69
2022-10-25T13:33:33.746Z,98109.63
2022-10-25T13:36:53.992Z,98105.16
2022-10-25T13:40:03.118Z,98114.91
2022-10-25T13:43:24.377Z,98121.38
2022-10-25T13:46:37.755Z,98124.88
2022-10-25T13:49:51.103Z,98119.69
2022-10-25T13:53:06.309Z,98125.50
2022-10-25T13:56:19.353Z,98122.44
2022-10-25T14:00:03.484Z,98126.09
2022-10-25T14:03:37.665Z,98131.16
2022-10-25T14:06:44.882Z,98126.25
2022-10-25T14:09:57.143Z,98131.63
2022-10-25T14:13:19.819Z,98125.69
2022-10-25T14:16:35.144Z,98126.47
2022-10-25T14:19:48.287Z,98122.09
2022-10-25T14:23:00.775Z,98122.09
2022-10-25T14:26:15.678Z,98120.44
2022-10-25T14:29:25.163Z,98125.22
2022-10-25T14:32:33.457Z,98133.53
2022-10-25T14:35:49.843Z,98123.06
2022-10-25T14:38:58.445Z,98133.09
2022-10-25T14:42:06.710Z,98130.06
2022-10-25T14:45:25.152Z,98135.84
2022-10-25T14:48:34.612Z,98136.09
2022-10-25T14:51:46.176Z,98139.16
2022-10-25T14:55:02.859Z,98142.25
2022-10-25T14:58:14.569Z,98141.25
2022-10-25T15:01:25.314Z,98143.31
2022-10-25T15:04:40.901Z,98147.03
2022-10-25T15:07:51.553Z,98146.16
2022-10-25T15:11:10.302Z,98157.28
2022-10-25T15:14:24.916Z,98162.66
2022-10-25T15:17:33.897Z,98156.28
2022-10-25T15:20:42.340Z,98163.66
2022-10-25T15:24:16.016Z,98158.50
2022-10-25T15:27:36.794Z,98161.22
2022-10-25T15:31:00.515Z,98171.94
2022-10-25T15:34:08.959Z,98166.34
2022-10-25T15:37:21.053Z,98167.00
2022-10-25T15:40:26.866Z,98168.66
2022-10-25T15:43:32.845Z,98175.50
2022-10-25T15:46:38.828Z,98176.72
2022-10-25T15:49:44.567Z,98174.88
2022-10-25T15:52:52.844Z,98174.25
2022-10-25T15:55:58.509Z,98181.06
2022-10-25T15:59:04.520Z,98181.88
2022-10-25T16:02:22.995Z,98178.34
2022-10-25T16:05:32.388Z,98181.59
2022-10-25T16:08:40.595Z,98189.22
2022-10-25T16:11:57.079Z,98194.38
2022-10-25T16:15:05.229Z,98191.88
2022-10-25T16:18:19.155Z,98197.38
2022-10-25T16:21:26.733Z,98198.41
2022-10-25T16:24:35.005Z,98192.03
2022-10-25T16:27:41.368Z,98186.66
2022-10-25T16:30:47.109Z,98184.59
2022-10-25T16:33:52.812Z,98191.75
2022-10-25T16:36:58.577Z,98200.81
2022-10-25T16:40:09.211Z,98201.63
2022-10-25T16:43:17.129Z,98198.91
2022-10-25T16:46:22.709Z,98205.69
2022-10-25T16:49:28.629Z,98209.78
2022-10-25T16:52:34.415Z,98215.53
2022-10-25T16:55:45.865Z,98215.94
2022-10-25T16:58:51.585Z,98219.63
2022-10-25T17:02:02.135Z,98225.81
2022-10-25T17:05:24.939Z,98216.28
2022-10-25T17:08:30.514Z,98220.19
2022-10-25T17:11:45.680Z,98225.66
2022-10-25T17:14:53.389Z,98226.16
2022-10-25T17:18:01.483Z,98227.44
2022-10-25T17:21:19.276Z,98234.44
2022-10-25T17:24:27.136Z,98238.91
2022-10-25T17:27:54.237Z,98238.44
2022-10-25T17:31:19.621Z,98246.47
2022-10-25T17:34:25.858Z,98237.63
2022-10-25T17:37:32.167Z,98246.78
2022-10-25T17:40:49.664Z,98253.34
2022-10-25T17:44:00.987Z,98252.28
2022-10-25T17:47:06.883Z,98256.78
2022-10-25T17:50:17.437Z,98262.09
2022-10-25T17:53:26.103Z,98262.47
2022-10-25T18:00:00.322Z,98263.72
2022-10-25T18:03:17.888Z,98264.75
2022-10-25T18:06:26.771Z,98260.06
2022-10-25T18:09:32.359Z,98269.78
2022-10-25T18:12:37.999Z,98276.94
2022-10-25T18:15:49.670Z,98276.22
2022-10-25T18:18:55.865Z,98277.13
2022-10-25T18:22:04.906Z,98269.94
2022-10-25T18:25:13.982Z,98273.69
2022-10-25T18:28:19.745Z,98269.78
2022-10-25T18:31:31.445Z,98266.50
2022-10-25T18:34:37.063Z,98272.16
2022-10-25T18:37:54.100Z,98275.03
2022-10-25T18:41:00.821Z,98269.72
2022-10-25T18:44:15.379Z,98272.06
2022-10-25T18:47:23.948Z,98272.56
2022-10-25T18:50:29.719Z,98276.63
2022-10-25T18:53:36.406Z,98274.59
2022-10-25T18:56:42.433Z,98285.69
2022-10-25T18:59:48.203Z,98281.00
2022-10-25T19:02:57.415Z,98284.75
2022-10-25T19:06:03.181Z,98280.63
2022-10-25T19:09:11.922Z,98281.25
2022-10-25T19:12:20.584Z,98280.81
2022-10-25T19:15:26.356Z,98284.66
2022-10-25T19:18:36.571Z,98285.44
2022-10-25T19:21:46.270Z,98287.16
2022-10-25T19:24:52.072Z,98281.16
2022-10-25T19:28:02.168Z,98279.78
2022-10-25T19:31:12.095Z,98287.63
2022-10-25T19:34:20.978Z,98289.97
2022-10-25T19:37:26.963Z,98289.28
2022-10-25T19:40:32.866Z,98282.59
2022-10-25T19:43:39.245Z,98288.25
2022-10-25T19:46:45.235Z,98287.94
2022-10-25T19:49:53.573Z,98277.25
2022-10-25T19:52:59.218Z,98283.13
2022-10-25T19:56:07.839Z,98287.00
2022-10-25T19:59:15.361Z,98295.13
2022-10-25T20:02:21.227Z,98290.63
2022-10-25T20:05:29.878Z,98298.19
2022-10-25T20:08:37.903Z,98300.34
2022-10-25T20:11:43.627Z,98301.66
2022-10-25T20:14:49.192Z,98308.13
2022-10-25T20:17:54.842Z,98305.44
2022-10-25T20:21:07.547Z,98301.22
2022-10-25T20:24:14.263Z,98305.63
2022-10-25T20:27:19.997Z,98322.19
2022-10-25T20:30:25.955Z,98321.72
2022-10-25T20:33:31.937Z,98324.56
2022-10-25T20:36:41.550Z,98318.88
2022-10-25T20:39:47.741Z,98316.94
2022-10-25T20:42:53.761Z,98320.53
2022-10-25T20:45:59.766Z,98312.88
2022-10-25T20:49:07.602Z,98311.22
2022-10-25T20:52:17.407Z,98308.03
2022-10-25T20:55:24.011Z,98310.25
2022-10-25T20:58:30.205Z,98310.69
2022-10-25T21:01:36.196Z,98313.34
2022-10-25T21:04:53.047Z,98315.00
2022-10-25T21:08:02.699Z,98317.22
2022-10-25T21:11:13.350Z,98318.41
2022-10-25T21:14:19.121Z,98319.72
2022-10-25T21:17:25.501Z,98314.38
2022-10-25T21:20:32.823Z,98320.53
2022-10-25T21:23:41.244Z,98311.34
2022-10-25T21:26:47.832Z,98313.25
2022-10-25T21:29:53.639Z,98314.06
2022-10-25T21:32:59.285Z,98318.34
2022-10-25T21:36:12.507Z,98317.03
2022-10-25T21:39:24.220Z,98320.53
2022-10-25T21:42:40.257Z,98306.88
2022-10-25T21:45:45.904Z,98304.91
2022-10-25T21:48:53.370Z,98311.34
2022-10-25T21:51:59.306Z,98304.09
2022-10-25T21:55:08.770Z,98305.22
2022-10-25T21:58:14.361Z,98309.28
2022-10-25T22:01:29.612Z,98309.09
2022-10-25T22:04:35.373Z,98308.25
2022-10-25T22:07:40.956Z,98308.94
2022-10-25T22:14:09.306Z,98310.88
2022-10-25T22:17:15.099Z,98306.38
2022-10-25T22:20:20.791Z,98312.72
2022-10-25T22:23:28.811Z,98306.09
2022-10-25T22:26:38.471Z,98312.91
2022-10-25T22:29:44.091Z,98306.19
2022-10-25T22:32:50.064Z,98311.69
2022-10-25T22:36:17.450Z,98309.03
2022-10-25T22:39:23.114Z,98310.69
2022-10-25T22:42:31.310Z,98326.72
2022-10-25T22:45:38.177Z,98317.59
2022-10-25T22:48:46.820Z,98318.22
2022-10-25T22:51:52.479Z,98313.47
2022-10-25T22:55:00.534Z,98322.13
2022-10-25T22:58:10.143Z,98322.94
2022-10-25T23:01:24.473Z,98326.22
2022-10-25T23:04:30.220Z,98331.84
2022-10-25T23:07:35.865Z,98321.75
2022-10-25T23:10:41.512Z,98342.34
2022-10-25T23:13:50.455Z,98336.28
2022-10-25T23:16:55.996Z,98336.72
2022-10-25T23:20:05.059Z,98342.06
2022-10-25T23:23:10.693Z,98340.44
2022-10-25T23:26:22.902Z,98338.75
2022-10-25T23:29:31.087Z,98341.13
2022-10-25T23:32:36.686Z,98341.50
2022-10-25T23:35:44.813Z,98346.91
2022-10-25T23:38:51.939Z,98343.44
2022-10-25T23:41:57.617Z,98340.56
2022-10-25T23:45:10.569Z,98345.06
2022-10-25T23:48:21.307Z,98352.41
2022-10-25T23:51:26.924Z,98346.72
2022-10-25T23:54:34.187Z,98357.75
2022-10-25T23:57:40.069Z,98358.75
